Time;durP1;ratioP1;P1;durP2;ratioP2;P2;SDS_P1;SDS_P2;PMS_P1;PMS_P2;Temp;Humidity;BMP_temperature;BMP_pressure;BME280_temperature;BME280_humidity;BME280_pressure;Samples;Min_cycle;Max_cycle;Signal;HPM_P1;HPM_P2
2022/05/14 00:00:40;;;;;;;3.40;2.83;;;;;;;;;;5037448;28;20032;-74
2022/05/14 00:03:05;;;;;;;3.95;3.13;;;;;;;;;;5037625;28;20029;-74
2022/05/14 00:05:31;;;;;;;4.35;3.40;;;;;;;;;;5055154;28;20112;-75
2022/05/14 00:07:57;;;;;;;5.75;3.22;;;;;;;;;;5055021;28;20036;-75
2022/05/14 00:10:24;;;;;;;3.17;2.88;;;;;;;;;;5055166;28;20023;-73
2022/05/14 00:13:07;;;;;;;3.20;2.90;;;;;;;;;;5055137;28;20389;-75
2022/05/14 00:15:36;;;;;;;3.95;2.90;;;;;;;;;;5054847;28;20056;-75
2022/05/14 00:18:03;;;;;;;2.70;2.50;;;;;;;;;;5054844;28;20036;-77
2022/05/14 00:20:28;;;;;;;4.00;2.58;;;;;;;;;;5055057;28;20028;-75
2022/05/14 00:22:54;;;;;;;3.92;2.40;;;;;;;;;;5055022;28;20028;-75
2022/05/14 00:25:19;;;;;;;2.63;2.38;;;;;;;;;;5054417;28;20027;-75
2022/05/14 00:27:46;;;;;;;3.40;2.40;;;;;;;;;;5054955;28;20074;-76
2022/05/14 00:30:13;;;;;;;2.63;2.40;;;;;;;;;;5036505;28;20082;-76
2022/05/14 00:32:47;;;;;;;2.97;2.55;;;;;;;;;;5037087;28;20066;-76
2022/05/14 00:35:12;;;;;;;4.40;2.78;;;;;;;;;;5054258;28;20021;-76
2022/05/14 00:37:38;;;;;;;5.65;3.08;;;;;;;;;;5036312;28;20067;-76
2022/05/14 00:40:10;;;;;;;3.10;2.55;;;;;;;;;;5054173;28;20420;-76
2022/05/14 00:42:35;;;;;;;3.42;2.60;;;;;;;;;;5054062;28;20029;-76
2022/05/14 00:45:01;;;;;;;3.15;2.88;;;;;;;;;;5054064;28;20009;-76
2022/05/14 00:47:29;;;;;;;2.67;2.38;;;;;;;;;;5054559;28;20043;-76
2022/05/14 00:49:54;;;;;;;4.85;2.70;;;;;;;;;;5035400;28;20071;-76
2022/05/14 00:52:22;;;;;;;3.97;2.97;;;;;;;;;;5035877;28;20484;-76
2022/05/14 00:55:06;;;;;;;3.88;2.55;;;;;;;;;;5036003;28;20017;-76
2022/05/14 00:57:34;;;;;;;3.28;2.70;;;;;;;;;;5035966;28;20033;-76
2022/05/14 01:00:04;;;;;;;4.28;2.67;;;;;;;;;;5036128;28;20025;-76
2022/05/14 01:02:30;;;;;;;3.43;2.90;;;;;;;;;;5054154;28;20032;-77
2022/05/14 01:04:58;;;;;;;3.05;2.85;;;;;;;;;;5016844;28;20396;-77
2022/05/14 01:07:24;;;;;;;3.65;2.85;;;;;;;;;;5034275;28;20037;-77
2022/05/14 01:09:52;;;;;;;3.83;3.08;;;;;;;;;;5036029;28;20090;-76
2022/05/14 01:12:19;;;;;;;3.67;3.05;;;;;;;;;;5053982;28;20631;-76
2022/05/14 01:14:46;;;;;;;4.78;3.67;;;;;;;;;;5036380;28;20377;-76
2022/05/14 01:17:12;;;;;;;5.18;3.67;;;;;;;;;;5036357;28;20029;-75
2022/05/14 01:19:39;;;;;;;3.42;3.13;;;;;;;;;;5036095;28;20029;-76
2022/05/14 01:22:05;;;;;;;3.05;2.75;;;;;;;;;;5053790;28;20476;-75
2022/05/14 01:27:37;;;;;;;4.75;2.72;;;;;;;;;;5035838;28;20041;-76
2022/05/14 01:30:04;;;;;;;5.25;3.15;;;;;;;;;;5035955;28;20066;-75
2022/05/14 01:32:30;;;;;;;3.55;2.83;;;;;;;;;;5035552;28;20039;-75
2022/05/14 01:34:55;;;;;;;2.75;2.53;;;;;;;;;;5035682;28;20372;-76
2022/05/14 01:37:24;;;;;;;2.97;2.78;;;;;;;;;;5035498;28;20023;-74
2022/05/14 01:39:51;;;;;;;3.05;2.80;;;;;;;;;;5036179;28;20032;-74
2022/05/14 01:42:17;;;;;;;3.17;2.65;;;;;;;;;;5053569;28;20031;-75
2022/05/14 01:44:45;;;;;;;3.90;2.88;;;;;;;;;;5053590;28;20444;-73
2022/05/14 01:47:11;;;;;;;4.28;3.28;;;;;;;;;;5036138;28;20087;-73
2022/05/14 01:49:37;;;;;;;3.63;3.03;;;;;;;;;;5035719;28;20021;-73
2022/05/14 01:52:02;;;;;;;3.08;2.83;;;;;;;;;;5035785;28;20028;-72
2022/05/14 01:54:29;;;;;;;3.38;2.60;;;;;;;;;;5053596;28;20015;-72
2022/05/14 01:56:55;;;;;;;2.95;2.80;;;;;;;;;;5035347;28;20525;-72
2022/05/14 01:59:20;;;;;;;3.33;3.13;;;;;;;;;;5035551;28;20021;-72
2022/05/14 02:01:45;;;;;;;3.03;2.72;;;;;;;;;;5036686;28;20025;-73
2022/05/14 02:04:13;;;;;;;4.18;3.17;;;;;;;;;;5057898;28;20021;-74
2022/05/14 02:06:40;;;;;;;3.83;3.38;;;;;;;;;;5039154;28;20033;-74
2022/05/14 02:09:06;;;;;;;5.22;3.17;;;;;;;;;;5039650;28;20021;-73
2022/05/14 02:11:33;;;;;;;4.15;3.45;;;;;;;;;;5038950;28;20120;-74
2022/05/14 02:14:05;;;;;;;2.88;2.67;;;;;;;;;;5039438;28;20029;-76
2022/05/14 02:16:31;;;;;;;4.35;3.08;;;;;;;;;;5057183;28;20029;-76
2022/05/14 02:18:57;;;;;;;5.13;2.97;;;;;;;;;;5039456;28;20500;-76
2022/05/14 02:21:24;;;;;;;3.28;2.97;;;;;;;;;;5038939;28;20029;-76
2022/05/14 02:23:51;;;;;;;4.63;3.10;;;;;;;;;;5039268;28;20029;-76
2022/05/14 02:26:17;;;;;;;2.70;2.53;;;;;;;;;;5039056;28;20021;-76
2022/05/14 02:28:43;;;;;;;2.70;2.60;;;;;;;;;;5038676;28;20380;-76
2022/05/14 02:31:10;;;;;;;3.20;2.90;;;;;;;;;;5057028;28;20029;-75
2022/05/14 02:33:35;;;;;;;3.25;3.05;;;;;;;;;;5038684;28;20025;-76
2022/05/14 02:36:02;;;;;;;3.42;2.85;;;;;;;;;;5039028;28;20091;-76
2022/05/14 02:38:30;;;;;;;3.78;2.90;;;;;;;;;;5039164;28;20066;-76
2022/05/14 02:40:57;;;;;;;3.90;3.20;;;;;;;;;;5056704;28;20040;-76
2022/05/14 02:43:22;;;;;;;3.45;3.17;;;;;;;;;;5020776;28;20363;-76
2022/05/14 02:45:49;;;;;;;3.45;3.20;;;;;;;;;;5056332;28;20032;-76
2022/05/14 02:48:14;;;;;;;3.60;3.08;;;;;;;;;;5056826;28;20024;-76
2022/05/14 02:50:41;;;;;;;3.28;3.08;;;;;;;;;;5038784;28;20021;-76
2022/05/14 02:53:07;;;;;;;3.88;2.88;;;;;;;;;;5039225;28;20043;-76
2022/05/14 02:55:33;;;;;;;3.17;2.97;;;;;;;;;;5039110;28;20025;-76
2022/05/14 02:58:02;;;;;;;3.42;2.95;;;;;;;;;;5038646;28;20087;-76
2022/05/14 03:00:29;;;;;;;3.13;2.92;;;;;;;;;;5038701;28;20033;-76
2022/05/14 03:02:54;;;;;;;3.25;3.05;;;;;;;;;;5056300;28;20100;-76
2022/05/14 03:05:21;;;;;;;3.92;3.63;;;;;;;;;;5038111;28;20129;-76
2022/05/14 03:07:52;;;;;;;3.63;3.00;;;;;;;;;;5055856;28;20017;-76
2022/05/14 03:10:17;;;;;;;5.10;3.03;;;;;;;;;;5038226;28;20056;-75
2022/05/14 03:12:42;;;;;;;4.32;3.70;;;;;;;;;;5017739;28;20049;-74
2022/05/14 03:15:09;;;;;;;3.95;3.60;;;;;;;;;;5034176;28;20116;-74
2022/05/14 03:17:35;;;;;;;4.30;3.70;;;;;;;;;;5036051;28;20109;-74
2022/05/14 03:20:08;;;;;;;4.22;3.83;;;;;;;;;;5034527;28;20061;-75
2022/05/14 03:22:34;;;;;;;4.80;2.95;;;;;;;;;;5035893;28;20508;-75
2022/05/14 03:24:59;;;;;;;4.32;3.38;;;;;;;;;;5034961;28;20025;-75
2022/05/14 03:27:32;;;;;;;3.95;3.10;;;;;;;;;;5034654;28;20363;-75
2022/05/14 03:29:58;;;;;;;3.83;3.55;;;;;;;;;;5034551;28;20393;-75
2022/05/14 03:32:24;;;;;;;3.50;3.03;;;;;;;;;;5034458;28;20025;-76
2022/05/14 03:34:50;;;;;;;3.28;3.05;;;;;;;;;;5034676;28;20254;-71
2022/05/14 03:37:15;;;;;;;3.58;3.28;;;;;;;;;;5033025;28;20019;-73
2022/05/14 03:39:41;;;;;;;4.05;3.13;;;;;;;;;;5034287;28;20029;-73
2022/05/14 03:42:07;;;;;;;3.65;2.58;;;;;;;;;;5032909;28;20032;-73
2022/05/14 03:44:32;;;;;;;3.63;2.97;;;;;;;;;;5034174;28;20029;-74
2022/05/14 03:46:58;;;;;;;4.47;3.03;;;;;;;;;;5032903;28;20121;-74
2022/05/14 03:49:24;;;;;;;3.17;2.97;;;;;;;;;;5032762;28;20124;-74
2022/05/14 03:51:49;;;;;;;6.03;3.17;;;;;;;;;;5032908;28;20017;-72
2022/05/14 03:54:15;;;;;;;4.50;3.22;;;;;;;;;;5034006;28;20485;-72
2022/05/14 03:56:41;;;;;;;3.55;3.25;;;;;;;;;;5034019;28;20017;-72
2022/05/14 03:59:08;;;;;;;3.38;3.13;;;;;;;;;;5032690;28;20026;-72
2022/05/14 04:01:34;;;;;;;4.18;3.15;;;;;;;;;;5033855;28;20527;-72
2022/05/14 04:04:00;;;;;;;4.45;3.10;;;;;;;;;;5033774;28;20488;-72
2022/05/14 04:06:25;;;;;;;3.78;3.45;;;;;;;;;;5032520;28;20116;-72
2022/05/14 04:08:51;;;;;;;4.07;3.78;;;;;;;;;;5033713;28;20112;-72
2022/05/14 04:11:16;;;;;;;10.45;3.63;;;;;;;;;;5033506;28;20115;-73
2022/05/14 04:13:42;;;;;;;4.45;3.22;;;;;;;;;;5015873;28;20539;-72
2022/05/14 04:16:07;;;;;;;5.80;3.72;;;;;;;;;;5015849;28;20443;-72
2022/05/14 04:18:33;;;;;;;3.67;3.38;;;;;;;;;;5015843;28;20029;-72
2022/05/14 04:21:00;;;;;;;3.67;3.35;;;;;;;;;;5033528;28;20091;-71
2022/05/14 04:23:28;;;;;;;4.25;3.80;;;;;;;;;;5015706;28;20392;-71
2022/05/14 04:25:53;;;;;;;4.32;3.47;;;;;;;;;;5015515;28;20470;-72
2022/05/14 04:28:21;;;;;;;4.32;3.80;;;;;;;;;;5015513;28;20025;-72
2022/05/14 04:30:48;;;;;;;6.60;4.70;;;;;;;;;;4999202;28;20021;-72
2022/05/14 04:33:14;;;;;;;11.40;5.28;;;;;;;;;;5033272;28;20116;-72
2022/05/14 04:35:40;;;;;;;10.13;5.03;;;;;;;;;;5015558;28;20017;-72
2022/05/14 04:38:06;;;;;;;9.02;5.38;;;;;;;;;;5015427;28;20040;-71
2022/05/14 04:40:32;;;;;;;7.75;5.70;;;;;;;;;;5015417;28;20473;-73
2022/05/14 04:42:58;;;;;;;9.82;5.20;;;;;;;;;;5015375;28;20051;-75
2022/05/14 04:45:23;;;;;;;6.95;5.13;;;;;;;;;;5015307;28;20040;-75
2022/05/14 04:47:48;;;;;;;8.30;4.95;;;;;;;;;;5015204;28;20038;-74
2022/05/14 04:50:15;;;;;;;6.72;4.85;;;;;;;;;;5015283;28;20492;-74
2022/05/14 04:52:40;;;;;;;6.68;4.60;;;;;;;;;;5015266;28;20025;-75
2022/05/14 04:55:06;;;;;;;5.82;4.18;;;;;;;;;;5015256;28;20020;-75
2022/05/14 04:57:33;;;;;;;7.72;4.25;;;;;;;;;;5016119;28;20068;-76
2022/05/14 04:59:59;;;;;;;8.65;4.85;;;;;;;;;;5034379;28;20151;-77
2022/05/14 05:05:10;;;;;;;4.40;4.00;;;;;;;;;;5016330;28;20025;-76
2022/05/14 05:07:35;;;;;;;4.47;3.90;;;;;;;;;;5016304;28;20095;-75
2022/05/14 05:10:02;;;;;;;5.38;3.97;;;;;;;;;;5033931;28;20531;-75
2022/05/14 05:12:28;;;;;;;8.65;3.75;;;;;;;;;;5033829;28;20080;-75
2022/05/14 05:14:54;;;;;;;4.07;3.78;;;;;;;;;;5032795;28;20385;-75
2022/05/14 05:17:19;;;;;;;9.75;4.53;;;;;;;;;;5032576;28;20036;-75
2022/05/14 05:19:45;;;;;;;3.95;3.65;;;;;;;;;;5032446;28;20040;-75
2022/05/14 05:22:10;;;;;;;3.97;3.60;;;;;;;;;;5032444;28;20026;-76
2022/05/14 05:24:36;;;;;;;5.13;4.07;;;;;;;;;;5031308;28;20271;-76
2022/05/14 05:27:01;;;;;;;7.25;4.40;;;;;;;;;;5032319;28;20053;-76
2022/05/14 05:29:26;;;;;;;6.72;4.03;;;;;;;;;;5030570;28;20025;-75
2022/05/14 05:31:52;;;;;;;5.40;4.05;;;;;;;;;;5030638;28;20489;-76
2022/05/14 05:34:17;;;;;;;10.38;4.07;;;;;;;;;;5030319;28;20381;-76
2022/05/14 05:36:43;;;;;;;4.93;3.70;;;;;;;;;;5033167;28;20067;-76
2022/05/14 05:39:10;;;;;;;4.88;3.97;;;;;;;;;;5038057;28;20489;-75
2022/05/14 05:41:36;;;;;;;7.93;3.90;;;;;;;;;;5039315;28;20051;-75
2022/05/14 05:44:01;;;;;;;7.03;4.00;;;;;;;;;;5039112;28;20059;-76
2022/05/14 05:46:26;;;;;;;4.68;3.97;;;;;;;;;;5039171;28;20025;-76
2022/05/14 05:48:52;;;;;;;4.85;3.72;;;;;;;;;;5039107;28;20033;-76
2022/05/14 05:51:17;;;;;;;4.50;3.40;;;;;;;;;;5019857;28;20028;-76
2022/05/14 05:59:11;;;;;;;5.68;2.85;;;;;;;;;;5036758;28;20125;-76
2022/05/14 06:01:36;;;;;;;4.47;2.63;;;;;;;;;;5036755;28;20512;-76
2022/05/14 06:04:02;;;;;;;4.28;2.67;;;;;;;;;;5037477;28;20021;-76
2022/05/14 06:06:27;;;;;;;5.88;3.05;;;;;;;;;;5038747;28;20051;-76
2022/05/14 06:08:53;;;;;;;2.88;2.53;;;;;;;;;;5038635;28;20040;-76
2022/05/14 06:11:19;;;;;;;5.40;2.70;;;;;;;;;;5038552;28;20042;-76
2022/05/14 06:13:45;;;;;;;3.08;2.30;;;;;;;;;;5020900;28;20025;-76
2022/05/14 06:16:11;;;;;;;3.20;2.33;;;;;;;;;;5038684;28;20022;-76
2022/05/14 06:18:37;;;;;;;2.67;2.40;;;;;;;;;;5038561;28;20504;-76
2022/05/14 06:21:03;;;;;;;6.35;2.38;;;;;;;;;;5038602;28;20044;-76
2022/05/14 06:23:28;;;;;;;4.57;2.42;;;;;;;;;;5038521;28;20450;-76
2022/05/14 06:25:54;;;;;;;2.65;2.28;;;;;;;;;;5020830;28;20033;-76
2022/05/14 06:28:19;;;;;;;5.00;2.00;;;;;;;;;;5038474;28;20057;-76
2022/05/14 06:30:44;;;;;;;2.22;1.70;;;;;;;;;;5020859;28;20139;-76
2022/05/14 06:33:11;;;;;;;4.03;1.58;;;;;;;;;;5020799;28;20029;-76
2022/05/14 06:35:37;;;;;;;1.80;1.50;;;;;;;;;;5038378;28;20021;-76
2022/05/14 06:38:03;;;;;;;4.15;1.25;;;;;;;;;;5038419;28;20029;-75
2022/05/14 06:40:28;;;;;;;2.65;1.50;;;;;;;;;;5038366;28;20106;-75
2022/05/14 06:42:54;;;;;;;3.22;1.77;;;;;;;;;;5038397;28;20117;-75
2022/05/14 06:45:19;;;;;;;3.35;1.45;;;;;;;;;;5038330;28;20024;-75
2022/05/14 06:47:45;;;;;;;3.28;1.50;;;;;;;;;;5037549;28;20429;-75
2022/05/14 06:50:10;;;;;;;2.10;1.42;;;;;;;;;;5035184;28;20026;-75
2022/05/14 06:52:36;;;;;;;2.67;1.42;;;;;;;;;;5035128;28;20029;-75
2022/05/14 06:55:02;;;;;;;6.25;1.60;;;;;;;;;;5035348;28;20017;-76
2022/05/14 06:57:29;;;;;;;3.95;1.50;;;;;;;;;;5035551;28;20478;-75
2022/05/14 06:59:55;;;;;;;1.70;1.40;;;;;;;;;;5036105;28;20025;-75
2022/05/14 07:02:20;;;;;;;2.63;1.52;;;;;;;;;;5018585;28;20099;-76
2022/05/14 07:07:30;;;;;;;2.13;1.75;;;;;;;;;;5036605;28;20083;-76
2022/05/14 07:09:55;;;;;;;4.50;1.88;;;;;;;;;;5036223;28;20021;-76
2022/05/14 07:12:21;;;;;;;3.55;2.20;;;;;;;;;;5029617;28;20037;-76
2022/05/14 07:14:46;;;;;;;3.53;1.55;;;;;;;;;;5056108;28;20496;-76
2022/05/14 07:17:14;;;;;;;3.05;1.33;;;;;;;;;;5056224;28;20033;-76
2022/05/14 07:19:39;;;;;;;2.28;1.35;;;;;;;;;;5038284;28;20052;-76
2022/05/14 07:22:07;;;;;;;1.92;1.50;;;;;;;;;;5055798;28;20067;-76
2022/05/14 07:24:32;;;;;;;2.97;1.60;;;;;;;;;;5055944;28;20018;-76
2022/05/14 07:27:00;;;;;;;7.53;2.40;;;;;;;;;;5055670;28;20040;-76
2022/05/14 07:29:26;;;;;;;2.55;1.88;;;;;;;;;;5056070;28;20024;-76
2022/05/14 07:31:52;;;;;;;3.78;1.60;;;;;;;;;;5055738;28;20032;-76
2022/05/14 07:34:18;;;;;;;1.58;1.30;;;;;;;;;;5055414;28;20096;-76
2022/05/14 07:36:46;;;;;;;3.15;1.65;;;;;;;;;;5055410;28;20047;-75
2022/05/14 07:39:12;;;;;;;1.98;1.30;;;;;;;;;;5055335;28;20024;-76
2022/05/14 07:41:39;;;;;;;4.43;1.52;;;;;;;;;;5055237;28;20033;-75
2022/05/14 07:44:05;;;;;;;2.05;1.20;;;;;;;;;;5037440;28;20396;-76
2022/05/14 07:46:33;;;;;;;3.75;1.40;;;;;;;;;;5055200;28;20052;-76
2022/05/14 07:49:00;;;;;;;3.30;1.48;;;;;;;;;;5055134;28;20017;-76
2022/05/14 07:51:26;;;;;;;2.90;1.48;;;;;;;;;;5055127;28;20033;-76
2022/05/14 07:53:52;;;;;;;5.45;1.40;;;;;;;;;;5055044;28;20020;-75
2022/05/14 07:56:17;;;;;;;2.80;1.42;;;;;;;;;;5055072;28;20469;-76
2022/05/14 07:58:43;;;;;;;4.53;1.20;;;;;;;;;;5055133;28;20021;-76
2022/05/14 08:01:09;;;;;;;2.63;1.40;;;;;;;;;;5054353;28;20033;-76
2022/05/14 08:03:34;;;;;;;2.50;1.27;;;;;;;;;;5054909;28;20025;-76
2022/05/14 08:06:00;;;;;;;3.20;1.42;;;;;;;;;;5054896;28;20044;-76
2022/05/14 08:08:26;;;;;;;2.30;1.30;;;;;;;;;;5054772;28;20025;-76
2022/05/14 08:10:52;;;;;;;1.83;1.30;;;;;;;;;;5054560;28;20029;-76
2022/05/14 08:13:18;;;;;;;4.82;1.67;;;;;;;;;;5054497;28;20044;-76
2022/05/14 08:15:45;;;;;;;1.52;1.10;;;;;;;;;;5054802;28;20459;-76
2022/05/14 08:18:11;;;;;;;1.95;1.20;;;;;;;;;;5055371;28;20028;-75
2022/05/14 08:20:38;;;;;;;1.95;1.42;;;;;;;;;;5054874;28;20020;-76
2022/05/14 08:25:48;;;;;;;1.25;1.15;;;;;;;;;;5054635;28;20385;-76
2022/05/14 08:28:13;;;;;;;1.75;1.30;;;;;;;;;;5036598;28;20025;-76
2022/05/14 08:30:39;;;;;;;2.50;1.00;;;;;;;;;;5054908;28;20029;-76
2022/05/14 08:33:07;;;;;;;4.28;1.40;;;;;;;;;;5054343;28;20053;-76
2022/05/14 08:35:33;;;;;;;3.25;1.50;;;;;;;;;;5054373;28;20112;-76
2022/05/14 08:37:58;;;;;;;5.05;1.83;;;;;;;;;;5054220;28;20100;-76
2022/05/14 08:40:33;;;;;;;2.15;0.90;;;;;;;;;;5054161;28;20028;-76
2022/05/14 08:42:59;;;;;;;2.47;1.35;;;;;;;;;;5054028;28;20176;-76
2022/05/14 08:45:26;;;;;;;2.80;1.17;;;;;;;;;;5036638;28;20025;-76
2022/05/14 08:47:57;;;;;;;1.02;0.90;;;;;;;;;;5054121;28;20021;-76
2022/05/14 08:50:24;;;;;;;2.33;1.07;;;;;;;;;;5054505;28;20512;-76
2022/05/14 08:52:49;;;;;;;1.77;1.30;;;;;;;;;;5054763;28;20017;-76
2022/05/14 08:55:16;;;;;;;3.50;1.35;;;;;;;;;;5054365;28;20116;-76
2022/05/14 08:57:52;;;;;;;0.60;0.60;;;;;;;;;;5054204;28;20024;-76
2022/05/14 09:00:17;;;;;;;6.90;1.42;;;;;;;;;;5054426;28;20033;-76
2022/05/14 09:02:47;;;;;;;2.92;1.50;;;;;;;;;;5054126;28;20024;-76
2022/05/14 09:05:15;;;;;;;4.00;2.03;;;;;;;;;;5036605;28;20028;-76
2022/05/14 09:07:40;;;;;;;1.92;1.15;;;;;;;;;;5054427;28;20052;-75
2022/05/14 09:10:18;;;;;;;1.67;1.38;;;;;;;;;;5053945;28;20114;-76
2022/05/14 09:12:51;;;;;;;1.92;1.13;;;;;;;;;;5052765;28;20057;-75
2022/05/14 09:15:17;;;;;;;0.90;0.90;;;;;;;;;;5053647;28;20376;-75
2022/05/14 09:17:42;;;;;;;1.27;1.00;;;;;;;;;;5053682;28;20013;-75
2022/05/14 09:20:07;;;;;;;0.40;0.40;;;;;;;;;;5053679;28;20461;-75
2022/05/14 09:22:47;;;;;;;3.10;1.50;;;;;;;;;;5053900;28;20090;-75
2022/05/14 09:25:17;;;;;;;3.13;1.42;;;;;;;;;;5053766;28;20029;-75
2022/05/14 09:27:48;;;;;;;4.65;1.50;;;;;;;;;;5053476;28;20051;-76
2022/05/14 09:30:23;;;;;;;3.47;1.50;;;;;;;;;;5053505;28;20049;-75
2022/05/14 09:32:49;;;;;;;2.35;1.15;;;;;;;;;;5053413;28;20108;-75
2022/05/14 09:35:16;;;;;;;2.30;1.50;;;;;;;;;;5053417;28;20056;-75
2022/05/14 09:37:42;;;;;;;1.95;1.05;;;;;;;;;;5053424;28;20029;-75
2022/05/14 09:40:10;;;;;;;3.13;1.70;;;;;;;;;;5053396;28;20029;-75
2022/05/14 09:42:43;;;;;;;2.10;1.10;;;;;;;;;;5035430;28;20393;-75
2022/05/14 09:45:29;;;;;;;2.58;1.48;;;;;;;;;;5053346;28;20504;-75
2022/05/14 09:47:54;;;;;;;3.05;1.70;;;;;;;;;;5051610;28;20542;-75
2022/05/14 09:50:23;;;;;;;3.58;1.48;;;;;;;;;;5034505;28;20017;-75
2022/05/14 09:52:55;;;;;;;3.40;1.42;;;;;;;;;;5052117;28;20028;-75
2022/05/14 09:55:21;;;;;;;2.58;1.17;;;;;;;;;;5052161;28;20025;-75
2022/05/14 09:57:49;;;;;;;3.20;1.35;;;;;;;;;;5052117;28;20017;-76
2022/05/14 10:00:19;;;;;;;4.28;1.85;;;;;;;;;;5052057;28;20033;-75
2022/05/14 10:02:54;;;;;;;2.85;1.48;;;;;;;;;;5052039;28;20545;-75
2022/05/14 10:05:38;;;;;;;3.40;1.40;;;;;;;;;;5052068;28;20025;-75
2022/05/14 10:08:07;;;;;;;2.30;1.20;;;;;;;;;;5051928;28;20389;-75
2022/05/14 10:10:36;;;;;;;2.60;1.60;;;;;;;;;;5052024;28;20017;-75
2022/05/14 10:13:10;;;;;;;3.95;1.58;;;;;;;;;;5051639;28;20094;-75
2022/05/14 10:15:40;;;;;;;3.78;1.33;;;;;;;;;;5034063;28;20385;-75
2022/05/14 10:18:09;;;;;;;1.33;0.60;;;;;;;;;;5051865;28;20041;-76
2022/05/14 10:20:34;;;;;;;2.15;1.20;;;;;;;;;;5051936;28;20025;-76
2022/05/14 10:29:11;;;;;;;1.40;1.30;;;;;;;;;;5056452;28;20036;-75
2022/05/14 10:31:42;;;;;;;2.03;1.30;;;;;;;;;;5037779;28;20029;-75
2022/05/14 10:34:10;;;;;;;1.80;1.23;;;;;;;;;;5055539;28;20128;-75
2022/05/14 10:36:51;;;;;;;2.03;1.33;;;;;;;;;;5055552;28;20017;-75
2022/05/14 10:39:20;;;;;;;1.38;1.10;;;;;;;;;;5055758;28;20068;-75
2022/05/14 10:41:47;;;;;;;2.28;1.10;;;;;;;;;;5055380;28;20025;-76
2022/05/14 10:44:22;;;;;;;1.77;1.23;;;;;;;;;;5056588;28;20029;-75
2022/05/14 10:46:48;;;;;;;5.85;1.30;;;;;;;;;;5056555;28;20025;-75
2022/05/14 10:49:17;;;;;;;1.75;1.20;;;;;;;;;;5038697;28;20366;-76
2022/05/14 10:51:45;;;;;;;2.42;1.30;;;;;;;;;;5056465;28;20066;-75
2022/05/14 10:54:18;;;;;;;2.53;0.70;;;;;;;;;;5056152;28;20017;-75
2022/05/14 10:57:10;;;;;;;1.80;1.27;;;;;;;;;;5055076;28;20035;-75
2022/05/14 10:59:48;;;;;;;3.10;1.10;;;;;;;;;;5003381;28;20124;-76
2022/05/14 11:02:28;;;;;;;1.52;1.40;;;;;;;;;;5054964;28;20527;-75
2022/05/14 11:04:54;;;;;;;2.22;1.17;;;;;;;;;;5055046;28;20253;-75
2022/05/14 11:07:33;;;;;;;1.83;1.45;;;;;;;;;;5054872;28;20021;-75
2022/05/14 11:10:19;;;;;;;4.10;1.50;;;;;;;;;;5054761;28;20121;-72
2022/05/14 11:12:46;;;;;;;1.90;1.13;;;;;;;;;;5053879;28;20048;-72
2022/05/14 11:15:28;;;;;;;1.90;1.13;;;;;;;;;;5054763;28;20143;-72
2022/05/14 11:18:09;;;;;;;2.58;1.60;;;;;;;;;;5055277;28;20033;-72
2022/05/14 11:20:35;;;;;;;0.73;0.60;;;;;;;;;;5055660;28;20029;-72
2022/05/14 11:23:08;;;;;;;1.58;1.10;;;;;;;;;;5055689;28;20032;-72
2022/05/14 11:25:33;;;;;;;2.15;1.17;;;;;;;;;;5055615;28;20025;-72
2022/05/14 11:28:05;;;;;;;3.10;1.35;;;;;;;;;;5055575;28;20487;-75
2022/05/14 11:30:46;;;;;;;2.15;1.45;;;;;;;;;;5055684;28;20476;-75
2022/05/14 11:33:20;;;;;;;2.22;1.30;;;;;;;;;;5055603;28;20025;-75
2022/05/14 11:35:46;;;;;;;1.88;1.20;;;;;;;;;;5054588;28;20040;-75
2022/05/14 11:38:13;;;;;;;2.55;1.40;;;;;;;;;;5055429;28;20380;-75
2022/05/14 11:40:39;;;;;;;2.53;1.30;;;;;;;;;;5055367;28;20079;-75
2022/05/14 11:43:20;;;;;;;2.40;0.88;;;;;;;;;;5055306;28;20025;-76
2022/05/14 11:45:53;;;;;;;2.35;1.20;;;;;;;;;;5055371;28;20036;-76
2022/05/14 11:48:27;;;;;;;1.77;1.35;;;;;;;;;;5055214;28;20036;-75
2022/05/14 11:50:55;;;;;;;4.47;1.45;;;;;;;;;;5055321;28;20082;-75
2022/05/14 11:53:30;;;;;;;1.75;1.23;;;;;;;;;;5055270;28;20017;-75
2022/05/14 11:55:58;;;;;;;3.28;1.33;;;;;;;;;;5055235;28;20035;-75
2022/05/14 11:58:45;;;;;;;2.60;1.42;;;;;;;;;;5055306;28;20052;-75
2022/05/14 12:01:16;;;;;;;2.22;1.15;;;;;;;;;;5055021;28;20063;-76
2022/05/14 12:03:44;;;;;;;4.53;1.80;;;;;;;;;;5054896;28;20036;-75
2022/05/14 12:06:12;;;;;;;4.88;1.67;;;;;;;;;;5054804;28;20020;-75
2022/05/14 12:08:37;;;;;;;6.30;1.52;;;;;;;;;;5054782;28;20530;-75
2022/05/14 12:11:21;;;;;;;2.23;1.40;;;;;;;;;;5054809;28;20029;-75
2022/05/14 12:13:52;;;;;;;0.40;0.40;;;;;;;;;;5054564;28;20313;-74
2022/05/14 12:16:26;;;;;;;0.90;0.75;;;;;;;;;;5036764;28;20028;-74
2022/05/14 12:18:51;;;;;;;2.25;1.48;;;;;;;;;;5054735;28;20036;-75
2022/05/14 12:21:16;;;;;;;2.58;1.35;;;;;;;;;;5054560;28;20025;-75
2022/05/14 12:23:43;;;;;;;3.22;1.20;;;;;;;;;;5054776;28;20029;-75
2022/05/14 12:26:23;;;;;;;2.72;1.60;;;;;;;;;;5054481;28;20023;-75
2022/05/14 12:28:49;;;;;;;2.45;1.70;;;;;;;;;;5054468;28;20120;-79
2022/05/14 12:34:07;;;;;;;2.63;1.70;;;;;;;;;;5054318;28;20032;-76
2022/05/14 12:36:34;;;;;;;2.15;1.63;;;;;;;;;;5054466;28;20040;-76
2022/05/14 12:39:02;;;;;;;4.25;1.80;;;;;;;;;;5054284;28;20035;-76
2022/05/14 12:41:30;;;;;;;2.83;2.03;;;;;;;;;;5054147;28;20075;-76
2022/05/14 12:43:56;;;;;;;2.58;2.20;;;;;;;;;;5054227;28;20491;-76
2022/05/14 12:46:22;;;;;;;3.17;1.25;;;;;;;;;;5053851;28;20037;-75
2022/05/14 12:48:49;;;;;;;2.08;1.70;;;;;;;;;;5036554;28;20021;-75
2022/05/14 12:51:22;;;;;;;2.13;1.50;;;;;;;;;;5054056;28;20197;-75
2022/05/14 12:53:49;;;;;;;4.97;2.22;;;;;;;;;;5036359;28;20025;-75
2022/05/14 12:56:15;;;;;;;3.95;1.85;;;;;;;;;;5053978;28;20094;-75
2022/05/14 12:58:41;;;;;;;3.65;1.92;;;;;;;;;;5053879;28;20090;-75
2022/05/14 13:01:07;;;;;;;3.35;1.95;;;;;;;;;;5035996;28;20047;-76
2022/05/14 13:03:39;;;;;;;2.13;1.67;;;;;;;;;;5053909;28;20029;-76
2022/05/14 13:06:04;;;;;;;1.60;1.50;;;;;;;;;;5053862;28;20037;-76
2022/05/14 13:08:31;;;;;;;4.85;2.00;;;;;;;;;;5036145;28;20025;-76
2022/05/14 13:10:59;;;;;;;2.08;1.60;;;;;;;;;;5053988;28;20151;-76
2022/05/14 13:13:33;;;;;;;4.55;1.60;;;;;;;;;;5053371;28;20397;-76
2022/05/14 13:15:59;;;;;;;2.47;1.65;;;;;;;;;;5052438;28;20033;-75
2022/05/14 13:18:31;;;;;;;6.07;1.65;;;;;;;;;;5052458;28;20041;-76
2022/05/14 13:21:00;;;;;;;1.70;1.60;;;;;;;;;;5052513;28;20090;-76
2022/05/14 13:23:25;;;;;;;2.92;1.60;;;;;;;;;;5034727;28;20078;-76
2022/05/14 13:25:56;;;;;;;3.38;1.88;;;;;;;;;;5052454;28;20033;-75
2022/05/14 13:28:26;;;;;;;4.20;1.80;;;;;;;;;;5052313;28;20125;-75
2022/05/14 13:30:51;;;;;;;2.88;2.10;;;;;;;;;;5052426;28;20074;-75
2022/05/14 13:33:43;;;;;;;2.10;1.70;;;;;;;;;;5052261;28;20033;-76
2022/05/14 13:39:09;;;;;;;5.72;4.07;;;;;;;;;;5032887;28;20056;-76
2022/05/14 13:41:40;;;;;;;4.47;4.10;;;;;;;;;;5052307;28;20033;-75
2022/05/14 13:44:06;;;;;;;5.85;4.78;;;;;;;;;;5052601;28;20025;-76
2022/05/14 13:46:47;;;;;;;4.38;2.92;;;;;;;;;;5052194;28;20025;-76
2022/05/14 13:49:19;;;;;;;3.05;1.63;;;;;;;;;;5052087;28;20043;-77
2022/05/14 13:51:50;;;;;;;4.70;2.65;;;;;;;;;;5034330;28;20025;-74
2022/05/14 13:54:17;;;;;;;2.03;1.77;;;;;;;;;;5052139;28;20029;-74
2022/05/14 13:56:47;;;;;;;3.10;2.20;;;;;;;;;;5052100;28;20025;-74
2022/05/14 13:59:24;;;;;;;3.00;1.63;;;;;;;;;;5055474;28;20396;-74
2022/05/14 14:01:56;;;;;;;2.95;1.73;;;;;;;;;;5056116;28;20500;-72
2022/05/14 14:04:23;;;;;;;1.70;1.50;;;;;;;;;;5056035;28;20036;-72
2022/05/14 14:06:51;;;;;;;3.03;2.20;;;;;;;;;;5056024;28;20025;-72
2022/05/14 14:09:17;;;;;;;3.47;1.83;;;;;;;;;;5055907;28;20033;-72
2022/05/14 14:11:44;;;;;;;2.47;1.77;;;;;;;;;;5056224;28;20036;-72
2022/05/14 14:14:10;;;;;;;3.88;1.80;;;;;;;;;;5055925;28;20044;-75
2022/05/14 14:16:36;;;;;;;4.00;1.80;;;;;;;;;;5056034;28;20431;-75
2022/05/14 14:19:01;;;;;;;2.65;1.90;;;;;;;;;;5055885;28;20078;-75
2022/05/14 14:21:27;;;;;;;3.00;1.90;;;;;;;;;;5055757;28;20028;-75
2022/05/14 14:23:54;;;;;;;2.55;1.58;;;;;;;;;;5056331;28;20362;-75
2022/05/14 14:26:19;;;;;;;2.65;1.90;;;;;;;;;;5056805;28;20013;-75
2022/05/14 14:28:48;;;;;;;3.40;2.15;;;;;;;;;;5057060;28;20040;-75
2022/05/14 14:31:13;;;;;;;3.30;2.03;;;;;;;;;;5056989;28;20059;-75
2022/05/14 14:33:41;;;;;;;4.10;2.72;;;;;;;;;;5057068;28;20056;-76
2022/05/14 14:36:06;;;;;;;8.07;4.78;;;;;;;;;;5056770;28;20636;-75
2022/05/14 14:38:32;;;;;;;5.47;3.65;;;;;;;;;;5056684;28;20068;-76
2022/05/14 14:40:58;;;;;;;4.70;2.28;;;;;;;;;;5056902;28;20365;-75
2022/05/14 14:43:23;;;;;;;6.03;3.30;;;;;;;;;;5055491;28;20330;-76
2022/05/14 14:45:49;;;;;;;5.00;2.97;;;;;;;;;;5054252;28;20329;-75
2022/05/14 14:48:14;;;;;;;7.53;4.45;;;;;;;;;;5054015;28;20037;-75
2022/05/14 14:50:40;;;;;;;3.00;1.88;;;;;;;;;;5054257;28;20021;-76
2022/05/14 14:53:06;;;;;;;2.17;1.70;;;;;;;;;;5054306;28;20024;-76
2022/05/14 14:55:31;;;;;;;2.35;1.63;;;;;;;;;;5054321;28;20025;-76
2022/05/14 14:57:57;;;;;;;3.88;1.95;;;;;;;;;;5054278;28;20029;-76
2022/05/14 15:00:24;;;;;;;4.70;1.65;;;;;;;;;;5054324;28;20162;-76
2022/05/14 15:02:55;;;;;;;2.40;1.70;;;;;;;;;;5054220;28;20029;-76
2022/05/14 15:05:22;;;;;;;3.80;2.05;;;;;;;;;;5054194;28;20037;-76
2022/05/14 15:07:48;;;;;;;3.33;2.28;;;;;;;;;;5054453;28;20522;-76
2022/05/14 15:10:14;;;;;;;4.72;2.67;;;;;;;;;;5054537;28;20029;-76
2022/05/14 15:12:41;;;;;;;3.65;2.40;;;;;;;;;;5055845;28;20106;-76
2022/05/14 15:15:07;;;;;;;2.80;2.17;;;;;;;;;;5037969;28;20037;-76